createdAt,value
2019-06-10T00:00:18.457Z,1014.89
2019-06-10T00:01:21.129Z,1014.89
2019-06-10T00:02:21.324Z,1014.91
2019-06-10T00:03:20.630Z,1014.88
2019-06-10T00:04:22.187Z,1014.86
2019-06-10T00:05:21.594Z,1014.86
2019-06-10T00:06:21.121Z,1014.89
2019-06-10T00:07:21.537Z,1014.85
2019-06-10T00:08:21.987Z,1014.88
2019-06-10T00:09:22.425Z,1014.85
2019-06-10T00:10:22.869Z,1014.85
2019-06-10T00:11:23.301Z,1014.87
2019-06-10T00:12:23.743Z,1014.90
2019-06-10T00:13:24.193Z,1014.88
2019-06-10T00:14:24.622Z,1014.82
2019-06-10T00:15:25.140Z,1014.81
2019-06-10T00:16:25.505Z,1014.77
2019-06-10T00:17:25.950Z,1014.74
2019-06-10T00:18:38.329Z,1014.77
2019-06-10T00:19:26.830Z,1014.74
2019-06-10T00:20:27.268Z,1014.73
2019-06-10T00:21:27.711Z,1014.73
2019-06-10T00:22:28.149Z,1014.80
2019-06-10T00:23:28.592Z,1014.81
2019-06-10T00:24:31.347Z,1014.72
2019-06-10T00:25:31.485Z,1014.76
2019-06-10T00:26:30.748Z,1014.79
2019-06-10T00:27:31.197Z,1014.78
2019-06-10T00:28:31.224Z,1014.82
2019-06-10T00:29:31.379Z,1014.84
2019-06-10T00:30:31.670Z,1014.81
2019-06-10T00:31:32.116Z,1014.81
2019-06-10T00:32:32.551Z,1014.80
2019-06-10T00:33:33.002Z,1014.79
2019-06-10T00:34:35.044Z,1014.78
2019-06-10T00:35:33.871Z,1014.77
2019-06-10T00:36:34.317Z,1014.82
2019-06-10T00:37:34.754Z,1014.85
2019-06-10T00:38:35.197Z,1014.85
2019-06-10T00:39:35.640Z,1014.83
2019-06-10T00:40:36.077Z,1014.84
2019-06-10T00:41:36.521Z,1014.83
2019-06-10T00:42:36.960Z,1014.78
2019-06-10T00:43:37.400Z,1014.75
2019-06-10T00:44:37.842Z,1014.75
2019-06-10T00:45:40.789Z,1014.75
2019-06-10T00:46:40.750Z,1014.72
2019-06-10T00:47:41.303Z,1014.70
2019-06-10T00:48:41.011Z,1014.68
2019-06-10T00:49:40.952Z,1014.71
2019-06-10T00:50:41.438Z,1014.71
2019-06-10T00:51:41.482Z,1014.69
2019-06-10T00:52:45.062Z,1014.63
2019-06-10T00:53:42.294Z,1014.62
2019-06-10T00:54:42.252Z,1014.60
2019-06-10T00:55:42.680Z,1014.61
2019-06-10T00:56:43.129Z,1014.58
2019-06-10T00:57:43.569Z,1014.58
2019-06-10T00:58:44.018Z,1014.54
2019-06-10T00:59:44.446Z,1014.55
2019-06-10T01:00:44.896Z,1014.55
2019-06-10T01:01:45.339Z,1014.51
2019-06-10T01:02:45.768Z,1014.51
2019-06-10T01:03:46.207Z,1014.52
2019-06-10T01:04:46.652Z,1014.48
2019-06-10T01:05:47.090Z,1014.51
2019-06-10T01:06:47.542Z,1014.47
2019-06-10T01:07:47.971Z,1014.46
2019-06-10T01:08:48.416Z,1014.42
2019-06-10T01:09:48.853Z,1014.43
2019-06-10T01:10:52.014Z,1014.40
2019-06-10T01:11:51.890Z,1014.32
2019-06-10T01:12:51.350Z,1014.27
2019-06-10T01:13:50.908Z,1014.27
2019-06-10T01:14:51.654Z,1014.25
2019-06-10T01:15:51.506Z,1014.25
2019-06-10T01:16:51.954Z,1014.23
2019-06-10T01:17:52.380Z,1014.22
2019-06-10T01:18:53.585Z,1014.17
2019-06-10T01:19:53.267Z,1014.15
2019-06-10T01:20:53.697Z,1014.09
2019-06-10T01:23:31.062Z,1014.00
2019-06-10T01:24:31.479Z,1013.95
2019-06-10T01:26:25.514Z,1013.96
2019-06-10T01:27:25.924Z,1013.94
2019-06-10T01:29:21.155Z,1013.93
2019-06-10T01:30:26.452Z,1013.89
2019-06-10T01:32:15.525Z,1013.90
2019-06-10T01:33:16.414Z,1013.93
2019-06-10T01:35:13.861Z,1013.94
2019-06-10T01:36:13.382Z,1013.89
2019-06-10T01:38:07.818Z,1013.89
2019-06-10T01:39:07.022Z,1013.87
2019-06-10T01:41:01.883Z,1013.83
2019-06-10T01:42:02.040Z,1013.81
2019-06-10T01:43:56.618Z,1013.77
2019-06-10T01:44:57.063Z,1013.72
2019-06-10T01:46:53.565Z,1013.66
2019-06-10T01:47:53.992Z,1013.65
2019-06-10T01:49:48.577Z,1013.63
2019-06-10T01:50:51.062Z,1013.62
2019-06-10T01:52:43.597Z,1013.58
2019-06-10T01:53:44.032Z,1013.57
2019-06-10T01:55:38.617Z,1013.57
2019-06-10T01:56:40.846Z,1013.53
2019-06-10T01:58:34.599Z,1013.54
2019-06-10T01:59:35.044Z,1013.59
2019-06-10T02:01:30.776Z,1013.62
2019-06-10T02:02:35.038Z,1013.59
2019-06-10T02:04:25.615Z,1013.57
2019-06-10T02:05:26.066Z,1013.52
2019-06-10T02:07:22.854Z,1013.55
2019-06-10T02:08:22.267Z,1013.56
2019-06-10T02:10:17.539Z,1013.55
2019-06-10T02:11:18.767Z,1013.53
2019-06-10T02:13:12.108Z,1013.49
2019-06-10T02:14:14.400Z,1013.46
2019-06-10T02:16:05.970Z,1013.39
2019-06-10T02:17:06.399Z,1013.38
2019-06-10T02:19:03.986Z,1013.31
2019-06-10T02:20:01.427Z,1013.28
2019-06-10T02:21:56.013Z,1013.18
2019-06-10T02:22:56.451Z,1013.16
2019-06-10T02:24:51.033Z,1013.07
2019-06-10T02:25:51.476Z,1013.04
2019-06-10T02:27:46.333Z,1012.99
2019-06-10T02:28:46.513Z,1012.97
2019-06-10T02:30:50.330Z,1012.90
2019-06-10T02:31:43.308Z,1012.86
2019-06-10T02:33:36.888Z,1012.75
2019-06-10T02:34:43.262Z,1012.72
2019-06-10T02:36:36.594Z,1012.62
2019-06-10T02:37:37.741Z,1012.53
2019-06-10T02:39:33.694Z,1012.50
2019-06-10T02:42:04.186Z,1012.46
2019-06-10T02:43:03.524Z,1012.49
2019-06-10T02:44:55.283Z,1012.59
2019-06-10T02:45:55.720Z,1012.55
2019-06-10T02:47:55.745Z,1012.58
2019-06-10T02:48:56.171Z,1012.63
2019-06-10T02:50:53.916Z,1012.66
2019-06-10T02:51:53.775Z,1012.66
2019-06-10T02:53:47.431Z,1012.65
2019-06-10T02:54:47.865Z,1012.66
2019-06-10T02:56:44.269Z,1012.93
2019-06-10T02:57:44.876Z,1013.07
2019-06-10T02:59:38.452Z,1012.81
2019-06-10T03:02:13.546Z,1012.82
2019-06-10T03:03:14.107Z,1012.70
2019-06-10T03:05:07.032Z,1012.68
2019-06-10T03:06:08.856Z,1012.64
2019-06-10T03:08:03.843Z,1012.60
2019-06-10T03:09:03.806Z,1012.58
2019-06-10T03:10:58.145Z,1012.64
2019-06-10T03:11:58.584Z,1012.60
2019-06-10T03:13:53.216Z,1012.60
2019-06-10T03:14:53.606Z,1012.58
2019-06-10T03:16:48.701Z,1012.56
2019-06-10T03:17:49.134Z,1012.56
2019-06-10T03:19:50.282Z,1012.56
2019-06-10T03:20:45.305Z,1012.57
2019-06-10T03:22:42.139Z,1012.52
2019-06-10T03:23:42.507Z,1012.49
2019-06-10T03:25:35.040Z,1012.52
2019-06-10T03:26:35.197Z,1012.51
2019-06-10T03:28:32.153Z,1012.47
2019-06-10T03:29:32.772Z,1012.50
2019-06-10T03:31:33.977Z,1012.46
2019-06-10T03:32:33.347Z,1012.49
2019-06-10T03:34:29.968Z,1012.51
2019-06-10T03:35:23.830Z,1012.47
2019-06-10T03:37:18.315Z,1012.47
2019-06-10T03:38:18.252Z,1012.51
2019-06-10T03:40:13.172Z,1012.56
2019-06-10T03:41:12.974Z,1012.57
2019-06-10T03:43:08.529Z,1012.57
2019-06-10T03:44:08.994Z,1012.62
2019-06-10T03:46:04.520Z,1012.64
2019-06-10T03:47:04.959Z,1012.67
2019-06-10T03:48:59.544Z,1012.64
2019-06-10T03:50:02.983Z,1012.59
2019-06-10T03:51:54.549Z,1012.68
2019-06-10T03:52:54.978Z,1012.77
2019-06-10T03:54:49.554Z,1012.80
2019-06-10T03:55:49.990Z,1012.74
2019-06-10T03:57:44.568Z,1012.72
2019-06-10T03:58:45.004Z,1012.74
2019-06-10T04:00:39.580Z,1012.77
2019-06-10T04:01:42.321Z,1012.74
2019-06-10T04:03:35.582Z,1012.87
2019-06-10T04:04:36.010Z,1012.84
2019-06-10T04:06:33.519Z,1012.78
2019-06-10T04:07:34.137Z,1012.75
2019-06-10T04:08:32.836Z,1012.76
2019-06-10T04:09:33.085Z,1012.71
2019-06-10T04:10:32.509Z,1012.63
2019-06-10T04:11:35.469Z,1012.60
2019-06-10T04:12:33.233Z,1012.57
2019-06-10T04:13:33.994Z,1012.54
2019-06-10T04:14:34.097Z,1012.46
2019-06-10T04:15:34.536Z,1012.42
2019-06-10T04:16:34.970Z,1012.37
2019-06-10T04:17:35.408Z,1012.35
2019-06-10T04:18:35.846Z,1012.34
2019-06-10T04:19:36.285Z,1012.35
2019-06-10T04:20:36.723Z,1012.47
2019-06-10T04:21:37.175Z,1012.59
2019-06-10T04:22:37.661Z,1012.57
2019-06-10T04:23:38.029Z,1012.52
2019-06-10T04:26:12.739Z,1012.41
2019-06-10T04:27:12.334Z,1012.43
2019-06-10T04:29:06.668Z,1012.44
2019-06-10T04:30:07.099Z,1012.47
2019-06-10T04:32:03.062Z,1012.49
2019-06-10T04:33:02.386Z,1012.53
2019-06-10T04:34:57.056Z,1012.52
2019-06-10T04:35:57.482Z,1012.49
2019-06-10T04:36:57.917Z,1012.46
2019-06-10T04:38:02.388Z,1012.48
2019-06-10T04:38:58.792Z,1012.51
2019-06-10T04:39:59.269Z,1012.52
2019-06-10T04:40:59.671Z,1012.49
2019-06-10T04:42:02.306Z,1012.48
2019-06-10T04:43:02.890Z,1012.44
2019-06-10T04:44:02.752Z,1012.42
2019-06-10T04:45:03.131Z,1012.37
2019-06-10T04:46:02.594Z,1012.27
2019-06-10T04:47:02.835Z,1012.26
2019-06-10T04:48:03.143Z,1012.25
2019-06-10T04:49:03.168Z,1012.23
2019-06-10T04:50:03.607Z,1012.24
2019-06-10T04:51:04.037Z,1012.22
2019-06-10T04:52:04.474Z,1012.12
2019-06-10T04:53:04.911Z,1012.04
2019-06-10T04:54:05.352Z,1012.04
2019-06-10T04:55:05.782Z,1012.01
2019-06-10T04:56:06.233Z,1011.99
2019-06-10T04:57:06.659Z,1011.98
2019-06-10T04:58:07.093Z,1011.92
2019-06-10T04:59:07.532Z,1011.84
2019-06-10T05:00:12.029Z,1011.86
2019-06-10T05:01:08.406Z,1011.82
2019-06-10T05:02:08.849Z,1011.85
2019-06-10T05:03:09.282Z,1011.80
2019-06-10T05:04:09.715Z,1011.77
2019-06-10T05:05:10.152Z,1011.79
2019-06-10T05:06:12.329Z,1011.80
2019-06-10T05:07:12.583Z,1011.87
2019-06-10T05:08:13.165Z,1011.95
2019-06-10T05:09:12.509Z,1011.93
2019-06-10T05:10:12.547Z,1011.85
2019-06-10T05:11:13.039Z,1011.87
2019-06-10T05:12:13.207Z,1011.97
2019-06-10T05:13:13.643Z,1012.04
2019-06-10T05:14:14.079Z,1012.05
2019-06-10T05:15:14.518Z,1012.01
2019-06-10T05:16:14.956Z,1011.96
2019-06-10T05:17:15.393Z,1011.93
2019-06-10T05:18:15.828Z,1011.91
2019-06-10T05:19:16.263Z,1011.95
2019-06-10T05:20:16.702Z,1011.98
2019-06-10T05:21:17.138Z,1012.03
2019-06-10T05:22:19.638Z,1012.03
2019-06-10T05:23:18.006Z,1011.99
2019-06-10T05:24:19.684Z,1011.92
2019-06-10T05:25:20.397Z,1011.88
2019-06-10T05:26:20.033Z,1011.89
2019-06-10T05:27:22.162Z,1011.88
2019-06-10T05:28:20.184Z,1011.89
2019-06-10T05:29:22.957Z,1011.94
2019-06-10T05:30:22.785Z,1011.99
2019-06-10T05:31:23.218Z,1011.92
2019-06-10T05:32:23.225Z,1011.89
2019-06-10T05:33:23.127Z,1011.88
2019-06-10T05:34:25.301Z,1011.89
2019-06-10T05:35:24.371Z,1011.96
2019-06-10T05:36:28.356Z,1012.00
2019-06-10T05:37:26.339Z,1012.05
2019-06-10T05:38:25.884Z,1012.10
2019-06-10T05:39:27.531Z,1012.09
2019-06-10T05:40:26.534Z,1012.05
2019-06-10T05:41:27.832Z,1011.99
2019-06-10T05:42:27.865Z,1011.97
2019-06-10T05:43:27.807Z,1011.93
2019-06-10T05:44:28.464Z,1011.95
2019-06-10T05:45:29.024Z,1011.91
2019-06-10T05:46:28.712Z,1011.93
2019-06-10T05:47:29.860Z,1011.93
2019-06-10T05:48:28.935Z,1011.98
2019-06-10T05:49:30.496Z,1012.01
2019-06-10T05:50:31.136Z,1012.03
2019-06-10T05:51:31.337Z,1012.04
2019-06-10T05:52:31.421Z,1012.05
2019-06-10T05:53:33.579Z,1012.03
2019-06-10T05:54:33.751Z,1012.04
2019-06-10T05:55:33.734Z,1012.02
2019-06-10T05:56:35.132Z,1011.99
2019-06-10T05:57:35.209Z,1011.94
2019-06-10T05:58:35.805Z,1011.93
2019-06-10T05:59:35.476Z,1011.93
2019-06-10T06:00:35.549Z,1011.98
2019-06-10T06:01:37.935Z,1011.97
2019-06-10T06:02:35.540Z,1011.95
2019-06-10T06:03:37.027Z,1011.95
2019-06-10T06:04:36.192Z,1011.92
2019-06-10T06:05:38.047Z,1011.90
2019-06-10T06:06:37.511Z,1011.84
2019-06-10T06:07:37.601Z,1011.83
2019-06-10T06:08:37.699Z,1011.74
2019-06-10T06:09:38.144Z,1011.75
2019-06-10T06:10:38.587Z,1011.75
2019-06-10T06:11:39.069Z,1011.76
2019-06-10T06:12:39.461Z,1011.76
2019-06-10T06:13:39.898Z,1011.77
2019-06-10T06:14:42.576Z,1011.81
2019-06-10T06:15:42.455Z,1011.82
2019-06-10T06:16:43.300Z,1011.81
2019-06-10T06:17:43.268Z,1011.78
2019-06-10T06:18:42.447Z,1011.81
2019-06-10T06:19:43.307Z,1011.80
2019-06-10T06:20:43.662Z,1011.75
2019-06-10T06:21:47.548Z,1011.74
2019-06-10T06:22:43.865Z,1011.72
2019-06-10T06:23:44.306Z,1011.69
2019-06-10T06:24:44.750Z,1011.69
2019-06-10T06:25:47.005Z,1011.71
2019-06-10T06:26:45.621Z,1011.65
2019-06-10T06:27:46.066Z,1011.61
2019-06-10T06:28:46.501Z,1011.59
2019-06-10T06:29:46.962Z,1011.62
2019-06-10T06:30:47.390Z,1011.65
2019-06-10T06:31:47.830Z,1011.68
2019-06-10T06:32:48.263Z,1011.65
2019-06-10T06:33:48.712Z,1011.67
2019-06-10T06:34:49.154Z,1011.63
2019-06-10T06:35:52.292Z,1011.60
2019-06-10T06:36:50.037Z,1011.61
2019-06-10T06:37:53.952Z,1011.61
2019-06-10T06:38:53.133Z,1011.59
2019-06-10T06:39:52.328Z,1011.62
2019-06-10T06:40:53.703Z,1011.63
2019-06-10T06:41:52.824Z,1011.61
2019-06-10T06:42:52.696Z,1011.63
2019-06-10T06:43:53.291Z,1011.69
2019-06-10T06:44:53.576Z,1011.63
2019-06-10T06:45:54.019Z,1011.68
2019-06-10T06:46:54.470Z,1011.67
2019-06-10T06:47:54.910Z,1011.67
2019-06-10T06:48:55.361Z,1011.68
2019-06-10T06:49:55.804Z,1011.63
2019-06-10T06:51:04.517Z,1011.63
2019-06-10T06:51:59.311Z,1011.63
2019-06-10T06:53:30.122Z,1011.63
2019-06-10T06:53:57.586Z,1011.64
2019-06-10T06:54:58.028Z,1011.61
2019-06-10T06:55:58.471Z,1011.58
2019-06-10T06:56:58.918Z,1011.52
2019-06-10T06:57:59.362Z,1011.51
2019-06-10T06:58:59.813Z,1011.50
2019-06-10T07:00:00.250Z,1011.46
2019-06-10T07:01:09.778Z,1011.42
2019-06-10T07:02:02.768Z,1011.37
2019-06-10T07:03:03.076Z,1011.32
2019-06-10T07:04:02.662Z,1011.32
2019-06-10T07:05:03.159Z,1011.26
2019-06-10T07:06:02.945Z,1011.21
2019-06-10T07:07:03.365Z,1011.18
2019-06-10T07:08:03.811Z,1011.16
2019-06-10T07:09:07.816Z,1011.14
2019-06-10T07:10:04.698Z,1011.16
2019-06-10T07:11:05.144Z,1011.09
2019-06-10T07:12:05.594Z,1011.08
2019-06-10T07:13:06.031Z,1011.10
2019-06-10T07:14:09.877Z,1011.11
2019-06-10T07:15:06.915Z,1011.13
2019-06-10T07:16:07.382Z,1011.14
2019-06-10T07:17:07.809Z,1011.11
2019-06-10T07:18:08.263Z,1011.08
2019-06-10T07:19:08.703Z,1011.11
2019-06-10T07:20:09.147Z,1011.10
2019-06-10T07:21:09.601Z,1011.12
2019-06-10T07:22:15.273Z,1011.10
2019-06-10T07:23:12.878Z,1011.13
2019-06-10T07:24:12.637Z,1011.17
2019-06-10T07:25:12.421Z,1011.13
2019-06-10T07:26:12.728Z,1011.14
2019-06-10T07:27:13.105Z,1011.16
2019-06-10T07:28:12.718Z,1011.16
2019-06-10T07:29:13.402Z,1011.17
2019-06-10T07:30:15.119Z,1011.18
2019-06-10T07:31:23.110Z,1011.17
2019-06-10T07:32:14.507Z,1011.13
2019-06-10T07:33:14.969Z,1011.11
2019-06-10T07:34:15.395Z,1011.10
2019-06-10T07:35:15.837Z,1011.08
2019-06-10T07:36:16.279Z,1011.11
2019-06-10T07:37:16.724Z,1011.13
2019-06-10T07:38:17.173Z,1011.17
2019-06-10T07:39:17.650Z,1011.17
2019-06-10T07:40:18.075Z,1011.14
2019-06-10T07:41:18.515Z,1011.12
2019-06-10T07:42:18.953Z,1011.09
2019-06-10T07:43:19.408Z,1011.12
2019-06-10T07:44:19.874Z,1011.12
2019-06-10T07:45:22.119Z,1011.10
2019-06-10T07:46:22.990Z,1011.10
2019-06-10T07:47:23.151Z,1011.11
2019-06-10T07:48:22.258Z,1011.11
2019-06-10T07:49:23.888Z,1011.12
2019-06-10T07:50:22.757Z,1011.14
2019-06-10T07:51:22.970Z,1011.16
2019-06-10T07:52:23.714Z,1011.17
2019-06-10T07:53:23.869Z,1011.20
2019-06-10T07:54:24.309Z,1011.24
2019-06-10T07:55:24.747Z,1011.26
2019-06-10T07:56:25.192Z,1011.24
2019-06-10T07:57:25.647Z,1011.22
2019-06-10T07:58:26.085Z,1011.21
2019-06-10T07:59:26.559Z,1011.17
2019-06-10T08:00:26.980Z,1011.16
2019-06-10T08:01:27.423Z,1011.10
2019-06-10T08:02:27.875Z,1011.12
2019-06-10T08:03:28.313Z,1011.07
2019-06-10T08:04:28.766Z,1011.09
2019-06-10T08:05:29.211Z,1011.10
2019-06-10T08:06:29.659Z,1011.09
2019-06-10T08:07:30.156Z,1011.09
2019-06-10T08:08:32.619Z,1011.12
2019-06-10T08:09:33.174Z,1011.13
2019-06-10T08:10:32.780Z,1011.17
2019-06-10T08:11:33.251Z,1011.19
2019-06-10T08:12:32.622Z,1011.14
2019-06-10T08:13:32.782Z,1011.19
2019-06-10T08:14:33.226Z,1011.21
2019-06-10T08:15:33.670Z,1011.18
2019-06-10T08:18:07.231Z,1011.10
2019-06-10T08:19:26.357Z,1011.12
2019-06-10T08:21:03.164Z,1011.04
2019-06-10T08:22:03.057Z,1011.02
2019-06-10T08:23:58.298Z,1011.05
2019-06-10T08:24:58.780Z,1011.05
2019-06-10T08:26:54.342Z,1011.03
2019-06-10T08:27:54.785Z,1011.03
2019-06-10T08:29:54.177Z,1011.03
2019-06-10T08:30:49.840Z,1011.02
2019-06-10T08:32:46.824Z,1011.05
2019-06-10T08:33:47.353Z,1011.03
2019-06-10T08:35:48.366Z,1011.01
2019-06-10T08:36:45.014Z,1011.01
2019-06-10T08:38:36.292Z,1011.00
2019-06-10T08:39:36.228Z,1011.03
2019-06-10T08:41:32.241Z,1011.03
2019-06-10T08:42:32.360Z,1011.05
2019-06-10T08:44:25.644Z,1011.04
2019-06-10T08:45:26.070Z,1011.06
2019-06-10T08:47:22.830Z,1011.04
2019-06-10T08:48:22.733Z,1011.06
2019-06-10T08:50:15.773Z,1011.08
2019-06-10T08:51:16.154Z,1011.03
2019-06-10T08:53:15.564Z,1011.00
2019-06-10T08:54:12.820Z,1011.00
2019-06-10T08:56:07.170Z,1010.97
2019-06-10T08:57:07.210Z,1010.94
2019-06-10T08:58:07.654Z,1010.90
2019-06-10T08:59:08.099Z,1010.94
2019-06-10T09:00:12.479Z,1010.90
2019-06-10T09:01:08.996Z,1010.90
2019-06-10T09:02:09.453Z,1010.86
2019-06-10T09:03:12.411Z,1010.82
2019-06-10T09:04:10.345Z,1010.83
2019-06-10T09:05:12.571Z,1010.84
2019-06-10T09:06:13.330Z,1010.85
2019-06-10T09:07:12.562Z,1010.82
2019-06-10T09:08:13.016Z,1010.86
2019-06-10T09:09:12.982Z,1010.90
2019-06-10T09:10:13.552Z,1010.88
2019-06-10T09:11:13.472Z,1010.86
2019-06-10T09:12:28.763Z,1010.89
2019-06-10T09:13:14.367Z,1010.90
2019-06-10T09:14:14.823Z,1010.90
2019-06-10T09:15:15.283Z,1010.90
2019-06-10T09:16:19.110Z,1010.91
2019-06-10T09:17:16.166Z,1010.89
2019-06-10T09:18:19.949Z,1010.88
2019-06-10T09:19:17.063Z,1010.87
2019-06-10T09:20:17.532Z,1010.92
2019-06-10T09:21:17.971Z,1010.91
2019-06-10T09:22:18.419Z,1010.90
2019-06-10T09:23:22.445Z,1010.91
2019-06-10T09:24:19.341Z,1010.92
2019-06-10T09:25:22.436Z,1010.92
2019-06-10T09:26:22.699Z,1010.90
2019-06-10T09:27:24.461Z,1010.88
2019-06-10T09:28:23.504Z,1010.80
2019-06-10T09:29:22.268Z,1010.82
2019-06-10T09:30:22.712Z,1010.79
2019-06-10T09:31:23.743Z,1010.71
2019-06-10T09:32:23.514Z,1010.69
2019-06-10T09:33:23.395Z,1010.69
2019-06-10T09:34:23.966Z,1010.68
2019-06-10T09:35:24.326Z,1010.67
2019-06-10T09:36:24.721Z,1010.66
2019-06-10T09:37:25.175Z,1010.66
2019-06-10T09:38:25.636Z,1010.65
2019-06-10T09:39:26.094Z,1010.68
2019-06-10T09:40:26.539Z,1010.62
2019-06-10T09:41:39.439Z,1010.59
2019-06-10T09:42:27.440Z,1010.58
2019-06-10T09:43:27.884Z,1010.60
2019-06-10T09:44:28.336Z,1010.60
2019-06-10T09:45:28.785Z,1010.57
2019-06-10T09:46:29.247Z,1010.55
2019-06-10T09:47:29.690Z,1010.52
2019-06-10T09:48:30.144Z,1010.50
2019-06-10T09:49:32.811Z,1010.45
2019-06-10T09:50:33.316Z,1010.48
2019-06-10T09:51:32.470Z,1010.43
2019-06-10T09:52:32.910Z,1010.45
2019-06-10T09:53:39.271Z,1010.40
2019-06-10T09:54:33.576Z,1010.47
2019-06-10T09:55:33.313Z,1010.44
2019-06-10T09:56:33.774Z,1010.45
2019-06-10T09:57:34.221Z,1010.44
2019-06-10T09:58:34.679Z,1010.47
2019-06-10T09:59:35.135Z,1010.46
2019-06-10T10:00:35.599Z,1010.50
2019-06-10T10:01:36.046Z,1010.48
2019-06-10T10:02:36.520Z,1010.49
2019-06-10T10:03:36.962Z,1010.53
2019-06-10T10:04:37.662Z,1010.50
2019-06-10T10:05:37.876Z,1010.51
2019-06-10T10:06:38.325Z,1010.54
2019-06-10T10:07:38.776Z,1010.51
2019-06-10T10:08:39.246Z,1010.53
2019-06-10T10:09:42.087Z,1010.54
2019-06-10T10:10:41.639Z,1010.56
2019-06-10T10:11:44.134Z,1010.62
2019-06-10T10:12:44.042Z,1010.61
2019-06-10T10:13:44.145Z,1010.63
2019-06-10T10:14:44.780Z,1010.59
2019-06-10T10:15:43.527Z,1010.66
2019-06-10T10:16:47.759Z,1010.64
2019-06-10T10:17:46.545Z,1010.65
2019-06-10T10:18:47.287Z,1010.65
2019-06-10T10:19:46.852Z,1010.65
2019-06-10T10:20:48.091Z,1010.68
2019-06-10T10:21:49.490Z,1010.68
2019-06-10T10:22:47.056Z,1010.66
2019-06-10T10:23:56.808Z,1010.62
2019-06-10T10:24:47.563Z,1010.59
2019-06-10T10:25:48.248Z,1010.61
2019-06-10T10:26:50.859Z,1010.59
2019-06-10T10:27:51.251Z,1010.61
2019-06-10T10:28:50.327Z,1010.58
2019-06-10T10:29:50.610Z,1010.56
2019-06-10T10:30:52.719Z,1010.56
2019-06-10T10:31:52.409Z,1010.53
2019-06-10T10:32:52.239Z,1010.50
2019-06-10T10:33:50.658Z,1010.55
2019-06-10T10:34:52.525Z,1010.51
2019-06-10T10:35:52.656Z,1010.54
2019-06-10T10:36:56.954Z,1010.59
2019-06-10T10:37:54.313Z,1010.56
2019-06-10T10:38:53.572Z,1010.55
2019-06-10T10:39:56.293Z,1010.54
2019-06-10T10:40:58.455Z,1010.55
2019-06-10T10:41:56.888Z,1010.53
2019-06-10T10:43:10.171Z,1010.52
2019-06-10T10:43:57.791Z,1010.56
2019-06-10T10:44:58.911Z,1010.59
2019-06-10T10:46:00.228Z,1010.57
2019-06-10T10:46:56.555Z,1010.58
2019-06-10T10:47:57.763Z,1010.59
2019-06-10T10:48:57.465Z,1010.56
2019-06-10T10:49:58.173Z,1010.53
2019-06-10T10:50:58.386Z,1010.54
2019-06-10T10:51:58.837Z,1010.56
2019-06-10T10:52:59.294Z,1010.55
2019-06-10T10:54:21.032Z,1010.54
2019-06-10T10:55:05.894Z,1010.54
2019-06-10T10:56:02.300Z,1010.58
2019-06-10T10:57:02.602Z,1010.56
2019-06-10T10:58:03.200Z,1010.50
2019-06-10T10:59:02.222Z,1010.49
2019-06-10T11:00:03.095Z,1010.45
2019-06-10T11:01:04.061Z,1010.47
2019-06-10T11:02:03.371Z,1010.45
2019-06-10T11:03:03.862Z,1010.38
2019-06-10T11:04:04.284Z,1010.37
2019-06-10T11:05:04.753Z,1010.40
2019-06-10T11:06:05.294Z,1010.38
2019-06-10T11:07:05.645Z,1010.39
2019-06-10T11:08:06.110Z,1010.40
2019-06-10T11:09:06.548Z,1010.38
2019-06-10T11:10:07.010Z,1010.42
2019-06-10T11:11:07.461Z,1010.41
2019-06-10T11:12:08.633Z,1010.43
2019-06-10T11:13:08.377Z,1010.45
2019-06-10T11:14:08.830Z,1010.41
2019-06-10T11:15:09.277Z,1010.39
2019-06-10T11:16:09.759Z,1010.37
2019-06-10T11:17:10.191Z,1010.38
2019-06-10T11:18:12.661Z,1010.43
2019-06-10T11:19:13.038Z,1010.40
2019-06-10T11:20:13.634Z,1010.45
2019-06-10T11:21:13.252Z,1010.46
2019-06-10T11:22:12.678Z,1010.46
2019-06-10T11:23:12.909Z,1010.48
2019-06-10T11:24:14.516Z,1010.46
2019-06-10T11:25:13.817Z,1010.44
2019-06-10T11:26:14.274Z,1010.43
2019-06-10T11:27:14.730Z,1010.40
2019-06-10T11:28:15.181Z,1010.36
2019-06-10T11:29:15.636Z,1010.34
2019-06-10T11:30:16.087Z,1010.35
2019-06-10T11:31:16.540Z,1010.35
2019-06-10T11:32:17.004Z,1010.33
2019-06-10T11:33:17.448Z,1010.31
2019-06-10T11:34:19.855Z,1010.28
2019-06-10T11:35:18.395Z,1010.24
2019-06-10T11:36:18.810Z,1010.26
2019-06-10T11:37:19.267Z,1010.22
2019-06-10T11:38:19.713Z,1010.21
2019-06-10T11:39:22.448Z,1010.24
2019-06-10T11:40:22.429Z,1010.22
2019-06-10T11:41:23.488Z,1010.25
2019-06-10T11:42:23.320Z,1010.29
2019-06-10T11:43:22.598Z,1010.31
2019-06-10T11:44:22.559Z,1010.30
2019-06-10T11:45:22.889Z,1010.30
2019-06-10T11:46:23.348Z,1010.28
2019-06-10T11:47:23.808Z,1010.28
2019-06-10T11:48:24.482Z,1010.29
2019-06-10T11:49:24.706Z,1010.28
2019-06-10T11:50:25.166Z,1010.29
2019-06-10T11:51:25.614Z,1010.27
2019-06-10T11:52:26.067Z,1010.33
2019-06-10T11:53:28.702Z,1010.32
2019-06-10T11:54:26.971Z,1010.28
2019-06-10T11:55:27.437Z,1010.30
2019-06-10T11:56:27.883Z,1010.24
2019-06-10T11:57:28.333Z,1010.27
2019-06-10T11:58:28.795Z,1010.27
2019-06-10T11:59:29.244Z,1010.27
2019-06-10T12:00:32.426Z,1010.24
2019-06-10T12:01:30.916Z,1010.22
2019-06-10T12:02:32.845Z,1010.19
2019-06-10T12:03:31.055Z,1010.15
2019-06-10T12:04:31.513Z,1010.17
2019-06-10T12:05:32.669Z,1010.13
2019-06-10T12:06:33.966Z,1010.14
2019-06-10T12:07:33.237Z,1010.07
2019-06-10T12:08:33.327Z,1010.05
2019-06-10T12:09:33.775Z,1010.02
2019-06-10T12:10:34.234Z,1010.00
2019-06-10T12:11:34.680Z,1009.98
2019-06-10T12:12:35.139Z,1009.97
2019-06-10T12:13:35.586Z,1010.00
2019-06-10T12:14:36.045Z,1010.01
2019-06-10T12:16:13.851Z,1010.03
2019-06-10T12:17:46.996Z,1009.97
2019-06-10T12:18:37.851Z,1009.97
2019-06-10T12:19:38.567Z,1009.96
2019-06-10T12:20:38.757Z,1009.99
2019-06-10T12:21:39.217Z,1009.98
2019-06-10T12:22:39.669Z,1009.94
2019-06-10T12:23:40.117Z,1009.98
2019-06-10T12:24:43.197Z,1009.95
2019-06-10T12:25:43.668Z,1010.00
2019-06-10T12:26:43.435Z,1010.00
2019-06-10T12:27:43.363Z,1009.94
2019-06-10T12:28:43.112Z,1009.93
2019-06-10T12:29:42.832Z,1009.90
2019-06-10T12:30:43.283Z,1009.83
2019-06-10T12:31:43.744Z,1009.82
2019-06-10T12:32:44.190Z,1009.78
2019-06-10T12:33:44.641Z,1009.72
2019-06-10T12:34:46.276Z,1009.75
2019-06-10T12:35:45.553Z,1009.75
2019-06-10T12:36:46.002Z,1009.75
2019-06-10T12:37:46.463Z,1009.77
2019-06-10T12:38:46.900Z,1009.75
2019-06-10T12:39:47.357Z,1009.82
2019-06-10T12:40:47.816Z,1009.81
2019-06-10T12:41:48.260Z,1009.82
2019-06-10T12:42:48.719Z,1009.80
2019-06-10T12:43:49.170Z,1009.80
2019-06-10T12:44:49.620Z,1009.76
2019-06-10T12:45:52.524Z,1009.79
2019-06-10T12:46:54.040Z,1009.77
2019-06-10T12:47:53.326Z,1009.76
2019-06-10T12:48:53.964Z,1009.72
2019-06-10T12:49:53.392Z,1009.72
2019-06-10T12:50:53.887Z,1009.69
2019-06-10T12:51:54.170Z,1009.68
2019-06-10T12:52:54.977Z,1009.62
2019-06-10T12:53:53.693Z,1009.63
2019-06-10T12:54:55.509Z,1009.65
2019-06-10T12:55:55.860Z,1009.63
2019-06-10T12:56:56.501Z,1009.57
2019-06-10T12:57:56.142Z,1009.57
2019-06-10T12:58:57.640Z,1009.53
2019-06-10T12:59:56.417Z,1009.52
2019-06-10T13:00:57.236Z,1009.52
2019-06-10T13:01:58.043Z,1009.51
2019-06-10T13:02:58.364Z,1009.52
2019-06-10T13:03:59.459Z,1009.49
2019-06-10T13:04:59.637Z,1009.45
2019-06-10T13:05:59.573Z,1009.45
2019-06-10T13:07:00.323Z,1009.49
2019-06-10T13:08:02.827Z,1009.43
2019-06-10T13:09:02.623Z,1009.40
2019-06-10T13:10:02.628Z,1009.40
2019-06-10T13:11:02.097Z,1009.37
2019-06-10T13:12:02.141Z,1009.33
2019-06-10T13:13:06.644Z,1009.31
2019-06-10T13:14:05.115Z,1009.28
2019-06-10T13:15:06.730Z,1009.28
2019-06-10T13:16:08.163Z,1009.22
2019-06-10T13:17:05.722Z,1009.25
2019-06-10T13:18:07.563Z,1009.29
2019-06-10T13:19:07.485Z,1009.25
2019-06-10T13:20:06.415Z,1009.18
2019-06-10T13:21:11.716Z,1009.17
2019-06-10T13:22:07.613Z,1009.19
2019-06-10T13:23:17.322Z,1009.17